Time;durP1;ratioP1;P1;durP2;ratioP2;P2;SDS_P1;SDS_P2;PMS_P1;PMS_P2;Temp;Humidity;BMP_temperature;BMP_pressure;BME280_temperature;BME280_humidity;BME280_pressure;Samples;Min_cycle;Max_cycle;Signal;HPM_P1;HPM_P2
2022/04/16 00:02:11;;;;;;;2.10;1.00;;;23.50;42.30;;;;;;5024651;28;20072;-43
2022/04/16 00:04:37;;;;;;;2.75;1.15;;;23.50;42.40;;;;;;5025183;28;20033;-43
2022/04/16 00:07:03;;;;;;;2.22;1.17;;;23.50;42.30;;;;;;5025679;28;20194;-43
2022/04/16 00:09:29;;;;;;;1.92;1.00;;;23.50;42.40;;;;;;5027984;28;20032;-43
2022/04/16 00:11:55;;;;;;;2.35;1.13;;;23.40;42.30;;;;;;5046025;28;20108;-42
2022/04/16 00:14:21;;;;;;;2.13;0.90;;;23.40;42.30;;;;;;5045565;28;20090;-43
2022/04/16 00:16:47;;;;;;;2.35;1.08;;;23.40;42.30;;;;;;5045715;28;20032;-43
2022/04/16 00:19:12;;;;;;;2.45;1.00;;;23.50;42.30;;;;;;5045600;28;20029;-43
2022/04/16 00:21:39;;;;;;;1.83;0.82;;;23.40;42.30;;;;;;5045983;28;20033;-43
2022/04/16 00:24:05;;;;;;;1.40;0.90;;;23.40;42.30;;;;;;5044785;28;20447;-43
2022/04/16 00:26:30;;;;;;;1.83;0.90;;;23.40;42.30;;;;;;5033115;28;20029;-43
2022/04/16 00:28:59;;;;;;;1.73;0.80;;;23.40;42.30;;;;;;5025823;28;20033;-43
2022/04/16 00:31:28;;;;;;;1.95;0.82;;;23.40;42.30;;;;;;5024911;28;20040;-43
2022/04/16 00:33:53;;;;;;;2.05;0.88;;;23.40;42.40;;;;;;5025410;28;20029;-43
2022/04/16 00:36:20;;;;;;;1.60;0.90;;;23.40;42.30;;;;;;5025572;28;20036;-42
2022/04/16 00:38:46;;;;;;;1.52;0.90;;;23.40;42.30;;;;;;5026360;28;20398;-43
2022/04/16 00:41:13;;;;;;;1.42;0.90;;;23.40;42.40;;;;;;5037551;28;20040;-43
2022/04/16 00:43:39;;;;;;;2.13;0.98;;;23.40;42.30;;;;;;5025141;28;20100;-42
2022/04/16 00:46:04;;;;;;;1.75;0.82;;;23.40;42.30;;;;;;5025541;28;20093;-43
2022/04/16 00:48:30;;;;;;;1.48;0.70;;;23.30;42.30;;;;;;5024666;28;20284;-43
2022/04/16 00:50:57;;;;;;;2.17;1.15;;;23.30;42.30;;;;;;5024045;28;20068;-43
2022/04/16 00:53:29;;;;;;;1.67;0.80;;;23.30;42.40;;;;;;5025160;28;20091;-43
2022/04/16 00:55:57;;;;;;;2.08;1.00;;;23.30;42.30;;;;;;5038669;28;20036;-43
2022/04/16 00:58:23;;;;;;;1.98;0.90;;;23.30;42.30;;;;;;5045409;28;20086;-43
2022/04/16 01:00:48;;;;;;;1.98;0.98;;;23.30;42.30;;;;;;5040583;28;20030;-42
2022/04/16 01:03:15;;;;;;;1.58;0.90;;;23.30;42.30;;;;;;5024865;28;20017;-43
2022/04/16 01:05:41;;;;;;;2.00;0.90;;;23.30;42.30;;;;;;5025008;28;20164;-42
2022/04/16 01:08:07;;;;;;;2.13;0.93;;;23.30;42.20;;;;;;5025179;28;20076;-43
2022/04/16 01:10:33;;;;;;;4.25;1.13;;;23.30;42.30;;;;;;5036257;28;20411;-42
2022/04/16 01:13:02;;;;;;;1.88;0.75;;;23.30;42.30;;;;;;5044488;28;20093;-43
2022/04/16 01:15:29;;;;;;;1.88;0.90;;;23.30;42.30;;;;;;5044893;28;20668;-43
2022/04/16 01:17:55;;;;;;;2.22;0.98;;;23.30;42.30;;;;;;5044862;28;20060;-43
2022/04/16 01:20:22;;;;;;;1.60;0.80;;;23.30;42.30;;;;;;5044370;28;20028;-43
2022/04/16 01:22:50;;;;;;;1.88;0.80;;;23.20;42.20;;;;;;5044619;28;20729;-43
2022/04/16 01:25:16;;;;;;;1.98;0.88;;;23.20;42.20;;;;;;5043772;28;20036;-43
2022/04/16 01:27:46;;;;;;;1.55;0.80;;;23.30;42.30;;;;;;5026897;28;20563;-43
2022/04/16 01:30:13;;;;;;;1.25;0.68;;;23.20;42.30;;;;;;5044420;28;20040;-43
2022/04/16 01:32:43;;;;;;;1.55;0.88;;;23.20;42.10;;;;;;5024862;28;20728;-43
2022/04/16 01:35:10;;;;;;;1.75;0.90;;;23.30;42.30;;;;;;5024568;28;20038;-43
2022/04/16 01:37:37;;;;;;;2.17;0.93;;;23.20;42.10;;;;;;5024453;28;20033;-43
2022/04/16 01:40:05;;;;;;;1.25;0.73;;;23.20;42.20;;;;;;5025481;28;20032;-43
2022/04/16 01:42:32;;;;;;;2.28;1.00;;;23.20;42.10;;;;;;5030788;28;20032;-43
2022/04/16 01:45:06;;;;;;;2.53;1.00;;;23.20;42.10;;;;;;5044243;28;20025;-43
2022/04/16 01:47:36;;;;;;;1.45;0.70;;;23.20;42.10;;;;;;5044343;28;20029;-43
2022/04/16 01:50:05;;;;;;;2.63;1.00;;;23.20;42.10;;;;;;5043705;28;20481;-43
2022/04/16 01:52:31;;;;;;;1.67;0.80;;;23.20;42.10;;;;;;5044174;28;20037;-43
2022/04/16 01:54:57;;;;;;;2.05;0.95;;;23.20;42.10;;;;;;5039681;28;20092;-43
2022/04/16 01:57:23;;;;;;;1.73;0.80;;;23.20;42.20;;;;;;5024777;28;20053;-43
2022/04/16 01:59:49;;;;;;;1.60;0.75;;;23.20;42.10;;;;;;5024659;28;20609;-43
2022/04/16 02:02:16;;;;;;;1.92;0.90;;;23.20;42.10;;;;;;5024538;28;20057;-43
2022/04/16 02:04:43;;;;;;;1.88;0.82;;;23.20;42.10;;;;;;5023995;28;20022;-43
2022/04/16 02:07:09;;;;;;;1.30;0.60;;;23.20;42.10;;;;;;5024616;28;20646;-43
2022/04/16 02:09:35;;;;;;;1.58;0.70;;;23.20;42.10;;;;;;5028560;28;20033;-43
2022/04/16 02:12:01;;;;;;;1.30;0.70;;;23.20;42.10;;;;;;5027801;28;20049;-42
2022/04/16 02:14:27;;;;;;;1.20;0.70;;;23.20;42.00;;;;;;5027899;28;20029;-42
2022/04/16 02:16:53;;;;;;;1.90;0.90;;;23.20;42.10;;;;;;5028230;28;20056;-43
2022/04/16 02:19:20;;;;;;;2.13;1.02;;;23.20;42.00;;;;;;5028076;28;20643;-43
2022/04/16 02:21:46;;;;;;;1.77;0.55;;;23.20;42.10;;;;;;5027846;28;20586;-43
2022/04/16 02:24:13;;;;;;;1.95;0.73;;;23.10;42.00;;;;;;5027364;28;20033;-43
2022/04/16 02:26:40;;;;;;;1.40;0.70;;;23.20;42.00;;;;;;5045554;28;20032;-43
2022/04/16 02:29:08;;;;;;;2.20;0.77;;;23.20;42.00;;;;;;5048211;28;20086;-43
2022/04/16 02:31:35;;;;;;;1.55;0.77;;;23.10;42.00;;;;;;5047539;28;20144;-43
2022/04/16 02:34:01;;;;;;;1.17;0.73;;;23.10;42.00;;;;;;5047526;28;20056;-43
2022/04/16 02:36:27;;;;;;;1.27;0.80;;;23.10;41.90;;;;;;5047513;28;20114;-43
2022/04/16 02:38:54;;;;;;;2.25;1.00;;;23.10;41.90;;;;;;5030802;28;20508;-43
2022/04/16 02:41:21;;;;;;;1.05;0.60;;;23.20;41.90;;;;;;5043192;28;20060;-42
2022/04/16 02:43:47;;;;;;;2.08;0.88;;;23.10;41.90;;;;;;5039840;28;20055;-43
2022/04/16 02:48:57;;;;;;;1.88;0.90;;;23.20;41.90;;;;;;5047366;28;20527;-43
2022/04/16 02:51:23;;;;;;;0.88;0.60;;;23.10;41.90;;;;;;5047450;28;20060;-43
2022/04/16 02:53:49;;;;;;;1.67;0.75;;;23.10;41.90;;;;;;5047312;28;20104;-43
2022/04/16 02:56:15;;;;;;;1.30;0.68;;;23.10;41.90;;;;;;5047635;28;20061;-43
2022/04/16 02:58:41;;;;;;;1.77;0.88;;;23.10;41.90;;;;;;5046398;28;20032;-42
2022/04/16 03:01:07;;;;;;;1.10;0.60;;;23.10;41.90;;;;;;5034832;28;20023;-43
2022/04/16 03:03:33;;;;;;;1.25;0.70;;;23.10;41.90;;;;;;5027159;28;20040;-43
2022/04/16 03:05:59;;;;;;;1.52;0.63;;;23.10;41.80;;;;;;5027558;28;20030;-43
2022/04/16 03:08:25;;;;;;;1.25;0.70;;;23.10;41.90;;;;;;5027313;28;20099;-43
2022/04/16 03:10:52;;;;;;;1.48;0.80;;;23.10;41.90;;;;;;5038003;28;20175;-42
2022/04/16 03:13:18;;;;;;;1.95;0.80;;;23.10;42.60;;;;;;5045989;28;20021;-43
2022/04/16 03:18:29;;;;;;;1.23;0.70;;;23.10;41.90;;;;;;5046470;28;20063;-43
2022/04/16 03:20:57;;;;;;;1.40;0.65;;;23.10;41.80;;;;;;5038511;28;20030;-42
2022/04/16 03:23:23;;;;;;;1.88;0.82;;;23.10;41.80;;;;;;5026841;28;20079;-43
2022/04/16 03:25:49;;;;;;;0.88;0.50;;;23.10;41.80;;;;;;5026286;28;20596;-42
2022/04/16 03:28:15;;;;;;;1.38;0.73;;;23.10;42.50;;;;;;5009950;28;20486;-43
2022/04/16 03:30:41;;;;;;;1.35;0.68;;;23.10;41.80;;;;;;5026615;28;20037;-43
2022/04/16 03:33:08;;;;;;;1.33;0.68;;;23.10;41.80;;;;;;5026293;28;20029;-42
2022/04/16 03:35:35;;;;;;;1.20;0.70;;;23.00;41.70;;;;;;5026464;28;20021;-43
2022/04/16 03:38:01;;;;;;;1.10;0.52;;;23.00;41.80;;;;;;5027047;28;20029;-42
2022/04/16 03:40:27;;;;;;;1.13;0.68;;;23.00;41.70;;;;;;5026032;28;20684;-43
2022/04/16 03:43:01;;;;;;;0.95;0.60;;;23.00;41.70;;;;;;5027197;28;20033;-42
2022/04/16 03:45:29;;;;;;;1.00;0.50;;;23.00;41.70;;;;;;5029879;28;20881;-43
2022/04/16 03:47:56;;;;;;;0.93;0.52;;;23.00;41.70;;;;;;5026679;28;20036;-42
2022/04/16 03:50:23;;;;;;;0.93;0.50;;;23.00;41.70;;;;;;5026217;28;20056;-43
2022/04/16 03:52:51;;;;;;;1.42;0.70;;;23.00;41.70;;;;;;5026081;28;20037;-43
2022/04/16 04:00:53;;;;;;;1.17;0.60;;;23.00;41.70;;;;;;5045868;28;20021;-43
2022/04/16 04:03:20;;;;;;;1.17;0.55;;;23.00;41.70;;;;;;5045372;28;20055;-43
2022/04/16 04:05:48;;;;;;;1.00;0.60;;;23.00;41.60;;;;;;5045990;28;20033;-42
2022/04/16 04:08:15;;;;;;;1.08;0.50;;;23.00;41.60;;;;;;5046338;28;20036;-43
2022/04/16 04:10:41;;;;;;;1.20;0.70;;;23.00;41.60;;;;;;5044319;28;20044;-42
2022/04/16 04:13:07;;;;;;;1.25;0.70;;;23.00;41.60;;;;;;5046662;28;20029;-43
2022/04/16 04:15:32;;;;;;;1.17;0.60;;;23.00;41.60;;;;;;5044651;28;20021;-43
2022/04/16 04:17:59;;;;;;;0.85;0.45;;;23.00;41.60;;;;;;5045899;28;20036;-43
2022/04/16 04:20:29;;;;;;;1.13;0.52;;;23.00;41.60;;;;;;5042194;28;20025;-43
2022/04/16 04:22:55;;;;;;;1.10;0.60;;;23.00;41.60;;;;;;5026050;28;20021;-43
2022/04/16 04:25:21;;;;;;;1.00;0.60;;;23.00;41.60;;;;;;5025708;28;20557;-43
2022/04/16 04:27:47;;;;;;;1.40;0.60;;;23.00;41.60;;;;;;5026102;28;20029;-43
2022/04/16 04:30:13;;;;;;;1.55;0.75;;;23.00;41.60;;;;;;5024708;28;20033;-43
2022/04/16 04:32:40;;;;;;;1.73;0.57;;;23.00;41.60;;;;;;5025479;28;20021;-43
2022/04/16 04:35:08;;;;;;;1.45;0.70;;;23.00;41.60;;;;;;5025736;28;20030;-43
2022/04/16 04:37:33;;;;;;;1.00;0.45;;;23.00;41.60;;;;;;5025827;28;20030;-43
2022/04/16 04:39:59;;;;;;;1.27;0.70;;;23.00;41.60;;;;;;5025764;28;20548;-43
2022/04/16 04:42:30;;;;;;;1.13;0.60;;;23.00;41.70;;;;;;5025405;28;20048;-44
2022/04/16 04:44:56;;;;;;;1.25;0.60;;;23.00;41.60;;;;;;5029582;28;20037;-42
2022/04/16 04:47:22;;;;;;;1.25;0.60;;;23.00;41.50;;;;;;5025703;28;20505;-43
2022/04/16 04:49:48;;;;;;;1.98;0.77;;;23.00;41.60;;;;;;5025022;28;20029;-42
2022/04/16 04:52:26;;;;;;;1.40;0.73;;;23.00;41.50;;;;;;5025088;28;20033;-43
2022/04/16 04:54:56;;;;;;;1.42;0.70;;;22.90;41.60;;;;;;5023260;28;20083;-43
2022/04/16 04:57:22;;;;;;;0.65;0.43;;;23.00;41.60;;;;;;5025298;28;20025;-43
2022/04/16 04:59:47;;;;;;;0.80;0.40;;;23.00;41.60;;;;;;5025901;28;20036;-42
2022/04/16 05:02:13;;;;;;;1.42;0.70;;;23.00;41.60;;;;;;5040396;28;20429;-43
2022/04/16 05:04:39;;;;;;;1.20;0.60;;;23.00;41.60;;;;;;5043461;28;20092;-43
2022/04/16 05:07:05;;;;;;;1.25;0.60;;;23.00;41.60;;;;;;5043814;28;20031;-43
2022/04/16 05:09:31;;;;;;;1.33;0.68;;;23.00;41.60;;;;;;5043653;28;20145;-43
2022/04/16 05:11:57;;;;;;;1.30;0.50;;;23.00;41.50;;;;;;5043109;28;20673;-43
2022/04/16 05:14:23;;;;;;;0.88;0.47;;;23.00;41.60;;;;;;5043262;28;20082;-43
2022/04/16 05:16:49;;;;;;;1.58;0.80;;;23.00;41.60;;;;;;5043930;28;20025;-43
2022/04/16 05:19:16;;;;;;;1.25;0.63;;;23.00;41.60;;;;;;5042876;28;20035;-43
2022/04/16 05:21:42;;;;;;;0.52;0.40;;;22.90;41.70;;;;;;5041303;28;20098;-43
2022/04/16 05:24:08;;;;;;;1.38;0.70;;;23.00;41.70;;;;;;5042553;28;20028;-43
2022/04/16 05:26:34;;;;;;;0.93;0.50;;;23.00;41.80;;;;;;5042192;28;20025;-43
2022/04/16 05:29:00;;;;;;;2.58;0.70;;;23.00;42.10;;;;;;5041938;28;20025;-42
2022/04/16 05:31:30;;;;;;;4.40;1.13;;;23.00;43.10;;;;;;5042966;28;20044;-42
2022/04/16 05:36:41;;;;;;;1.63;0.73;;;23.00;43.50;;;;;;5039125;28;20070;-43
2022/04/16 05:39:08;;;;;;;2.33;0.75;;;23.00;43.50;;;;;;5038214;28;20034;-43
2022/04/16 05:41:34;;;;;;;1.60;0.80;;;23.10;43.30;;;;;;5033580;28;20632;-43
2022/04/16 05:44:00;;;;;;;1.45;0.80;;;23.10;43.20;;;;;;5032782;28;20056;-43
2022/04/16 05:46:26;;;;;;;1.42;0.73;;;23.20;43.00;;;;;;5032503;28;20029;-43
2022/04/16 05:48:51;;;;;;;1.63;0.80;;;23.20;42.90;;;;;;5033360;28;20166;-43
2022/04/16 05:51:18;;;;;;;2.10;1.00;;;23.20;42.80;;;;;;5031967;28;20492;-42
2022/04/16 05:53:46;;;;;;;1.42;0.63;;;23.20;42.80;;;;;;5032058;28;20110;-43
2022/04/16 05:56:12;;;;;;;6.70;0.90;;;23.20;42.70;;;;;;5031940;28;20053;-43
2022/04/16 05:58:38;;;;;;;1.30;0.60;;;23.20;42.60;;;;;;5031704;28;20021;-42
2022/04/16 06:01:04;;;;;;;2.08;0.88;;;23.20;42.50;;;;;;5032827;28;20051;-43
2022/04/16 06:03:30;;;;;;;1.83;0.90;;;23.30;42.50;;;;;;5033574;28;20072;-43
2022/04/16 06:05:58;;;;;;;2.22;0.82;;;23.30;42.40;;;;;;5034001;28;20041;-43
2022/04/16 06:08:24;;;;;;;2.47;0.80;;;23.30;42.40;;;;;;5038346;28;20040;-43
2022/04/16 06:10:49;;;;;;;1.50;0.77;;;23.30;42.90;;;;;;5039995;28;20519;-43
2022/04/16 06:13:15;;;;;;;1.52;0.70;;;23.30;42.80;;;;;;5041376;28;20029;-44
2022/04/16 06:15:42;;;;;;;1.95;0.75;;;23.40;42.60;;;;;;5042767;28;20544;-44
2022/04/16 06:18:08;;;;;;;1.25;0.50;;;23.40;42.50;;;;;;5040177;28;20612;-43
2022/04/16 06:20:35;;;;;;;1.58;0.60;;;23.40;42.50;;;;;;5040388;28;20108;-44
2022/04/16 06:23:02;;;;;;;1.75;0.82;;;23.40;42.40;;;;;;5041256;28;20032;-43
2022/04/16 06:25:28;;;;;;;3.38;1.17;;;23.40;42.60;;;;;;5040289;28;20032;-43
2022/04/16 06:27:54;;;;;;;6.90;2.42;;;23.40;43.00;;;;;;5042135;28;20086;-43
2022/04/16 06:30:20;;;;;;;9.40;1.80;;;23.50;45.10;;;;;;5040092;28;20033;-43
2022/04/16 06:32:46;;;;;;;6.45;2.03;;;23.50;44.60;;;;;;5042166;28;20021;-43
2022/04/16 06:35:12;;;;;;;4.80;1.40;;;23.50;44.60;;;;;;5037603;28;20079;-43
2022/04/16 06:37:40;;;;;;;7.78;1.38;;;23.50;44.70;;;;;;5033920;28;20038;-43
2022/04/16 06:40:06;;;;;;;6.40;2.22;;;23.50;44.90;;;;;;5024091;28;20551;-44
2022/04/16 06:42:33;;;;;;;4.07;1.63;;;23.60;45.10;;;;;;5031593;28;20037;-44
2022/04/16 06:44:58;;;;;;;5.63;1.70;;;23.60;44.20;;;;;;5041841;28;20050;-42
2022/04/16 06:47:24;;;;;;;6.00;1.35;;;23.60;43.90;;;;;;5043815;28;20123;-43
2022/04/16 06:49:50;;;;;;;5.25;1.23;;;23.60;43.90;;;;;;5042657;28;20037;-43
2022/04/16 06:52:18;;;;;;;4.95;1.08;;;23.60;43.90;;;;;;5025062;28;20036;-43
2022/04/16 06:54:47;;;;;;;5.18;1.38;;;23.70;43.80;;;;;;5024997;28;20034;-43
2022/04/16 06:57:13;;;;;;;4.75;1.40;;;23.70;43.70;;;;;;5026537;28;20038;-42
2022/04/16 06:59:39;;;;;;;4.78;1.65;;;23.70;43.70;;;;;;5027201;28;20025;-44
2022/04/16 07:02:07;;;;;;;6.35;1.27;;;23.70;43.50;;;;;;5027161;28;20037;-44
2022/04/16 07:04:33;;;;;;;4.63;1.35;;;23.70;43.50;;;;;;5026881;28;20026;-43
2022/04/16 07:06:59;;;;;;;2.22;1.05;;;23.70;43.40;;;;;;5026169;28;20026;-43
2022/04/16 07:09:25;;;;;;;3.25;1.20;;;23.70;43.30;;;;;;5026865;28;20045;-44
2022/04/16 07:11:51;;;;;;;3.03;1.00;;;23.70;43.10;;;;;;5039486;28;20047;-43
2022/04/16 07:14:16;;;;;;;6.53;1.30;;;23.70;42.90;;;;;;5045823;28;20427;-44
2022/04/16 07:16:42;;;;;;;3.22;0.77;;;23.70;42.70;;;;;;5046135;28;20067;-42
2022/04/16 07:19:09;;;;;;;3.45;1.45;;;23.70;42.70;;;;;;5046858;28;20021;-42
2022/04/16 07:21:35;;;;;;;3.13;1.00;;;23.70;42.70;;;;;;5032965;28;20029;-42
2022/04/16 07:24:01;;;;;;;4.68;1.20;;;23.70;42.60;;;;;;5026538;28;20035;-43
2022/04/16 07:26:26;;;;;;;3.35;0.80;;;23.80;42.50;;;;;;5036091;28;20025;-44
2022/04/16 07:28:52;;;;;;;3.13;0.90;;;23.80;42.60;;;;;;5045216;28;20364;-43
2022/04/16 07:31:18;;;;;;;3.13;1.00;;;23.70;42.20;;;;;;5045145;28;20075;-44
2022/04/16 07:33:45;;;;;;;2.63;0.85;;;23.80;41.90;;;;;;5044640;28;20485;-43
2022/04/16 07:36:11;;;;;;;2.58;0.80;;;23.80;41.70;;;;;;5045136;28;20021;-44
2022/04/16 07:38:36;;;;;;;2.78;0.80;;;23.80;41.50;;;;;;5045747;28;20017;-44
2022/04/16 07:41:05;;;;;;;2.53;0.70;;;23.80;41.50;;;;;;5045314;28;20043;-43
2022/04/16 07:43:30;;;;;;;2.50;0.85;;;23.70;41.60;;;;;;5045535;28;20029;-44
2022/04/16 07:45:56;;;;;;;2.85;1.00;;;23.70;41.70;;;;;;5045030;28;20079;-43
2022/04/16 07:48:22;;;;;;;2.40;0.50;;;23.70;41.70;;;;;;5045237;28;20021;-44
2022/04/16 07:50:48;;;;;;;2.22;0.52;;;23.70;41.40;;;;;;5039810;28;20108;-43
2022/04/16 07:53:14;;;;;;;5.45;0.80;;;23.70;41.20;;;;;;5025754;28;20116;-43
2022/04/16 07:55:39;;;;;;;3.20;1.00;;;23.70;40.90;;;;;;5026220;28;20104;-44
2022/04/16 07:58:05;;;;;;;3.47;1.50;;;23.70;40.60;;;;;;5036803;28;20055;-45
2022/04/16 08:00:31;;;;;;;3.08;1.08;;;23.70;40.30;;;;;;5045693;28;20032;-45
2022/04/16 08:02:57;;;;;;;3.08;0.90;;;23.70;40.90;;;;;;5027762;28;20505;-45
2022/04/16 08:05:23;;;;;;;3.35;0.90;;;23.70;41.00;;;;;;5024719;28;20353;-43
2022/04/16 08:07:49;;;;;;;2.95;0.90;;;23.70;41.60;;;;;;5025587;28;20041;-43
2022/04/16 08:10:15;;;;;;;3.35;1.05;;;23.70;41.90;;;;;;5026193;28;20551;-43
2022/04/16 08:12:42;;;;;;;4.60;1.05;;;23.70;42.00;;;;;;5025364;28;20041;-43
2022/04/16 08:15:10;;;;;;;3.17;0.93;;;23.70;42.10;;;;;;5025443;28;20042;-43
2022/04/16 08:17:37;;;;;;;3.50;1.10;;;23.70;42.10;;;;;;5025977;28;20103;-43
2022/04/16 08:20:04;;;;;;;3.08;1.00;;;23.70;42.40;;;;;;5025543;28;20032;-43
2022/04/16 08:22:34;;;;;;;4.63;1.10;;;23.70;42.40;;;;;;5025797;28;20041;-43
2022/04/16 08:27:45;;;;;;;3.85;1.30;;;23.70;41.90;;;;;;5044308;28;20053;-43
2022/04/16 08:30:15;;;;;;;2.67;0.90;;;23.70;41.60;;;;;;5044710;28;20082;-43
2022/04/16 08:32:42;;;;;;;3.92;1.02;;;23.60;41.30;;;;;;5044260;28;20526;-43
2022/04/16 08:35:13;;;;;;;2.08;0.70;;;23.70;41.30;;;;;;5044795;28;20033;-44
2022/04/16 08:37:40;;;;;;;1.83;0.70;;;23.70;41.20;;;;;;5044864;28;20025;-44
2022/04/16 08:40:06;;;;;;;2.67;0.60;;;23.70;41.20;;;;;;5044382;28;20112;-44
2022/04/16 08:42:33;;;;;;;2.25;0.60;;;23.60;41.00;;;;;;5044082;28;20033;-43
2022/04/16 08:45:00;;;;;;;2.55;0.90;;;23.70;41.20;;;;;;5037836;28;20026;-43
2022/04/16 08:47:26;;;;;;;2.83;1.00;;;23.70;41.50;;;;;;5024458;28;20037;-43
2022/04/16 08:49:52;;;;;;;4.15;1.00;;;23.70;41.60;;;;;;5023979;28;20021;-44
2022/04/16 08:52:18;;;;;;;3.65;0.82;;;23.70;41.50;;;;;;5023840;28;20044;-43
2022/04/16 08:54:43;;;;;;;4.18;1.17;;;23.60;41.30;;;;;;5023893;28;20485;-42
2022/04/16 08:57:09;;;;;;;2.22;0.77;;;23.70;41.90;;;;;;5037502;28;20170;-42
2022/04/16 08:59:35;;;;;;;2.22;0.70;;;23.70;41.70;;;;;;5044087;28;20031;-43
2022/04/16 09:02:01;;;;;;;2.42;0.90;;;23.70;41.40;;;;;;5044154;28;20082;-43
2022/04/16 09:04:32;;;;;;;2.85;0.75;;;23.70;41.30;;;;;;5043777;28;20033;-43
2022/04/16 09:07:00;;;;;;;2.53;0.63;;;23.70;41.30;;;;;;5043445;28;20441;-43
2022/04/16 09:09:26;;;;;;;3.05;0.80;;;23.70;41.70;;;;;;5043845;28;20126;-43
2022/04/16 09:11:52;;;;;;;2.42;0.73;;;23.70;41.90;;;;;;5044164;28;20086;-42
2022/04/16 09:14:18;;;;;;;4.38;1.15;;;23.70;42.10;;;;;;5043110;28;20025;-43
2022/04/16 09:16:44;;;;;;;3.25;0.98;;;23.70;42.00;;;;;;5042929;28;20691;-43
2022/04/16 09:19:17;;;;;;;2.05;0.88;;;23.70;41.90;;;;;;5043731;28;20025;-43
2022/04/16 09:21:43;;;;;;;3.95;0.98;;;23.70;41.90;;;;;;5041563;28;20021;-44
2022/04/16 09:24:10;;;;;;;2.30;0.73;;;23.70;42.00;;;;;;5042318;28;20024;-43
2022/04/16 09:26:37;;;;;;;5.28;0.73;;;23.70;41.90;;;;;;5042984;28;20052;-43
2022/04/16 09:29:14;;;;;;;4.47;0.80;;;23.70;41.60;;;;;;5042266;28;20122;-42
2022/04/16 09:31:43;;;;;;;3.40;1.45;;;23.70;42.00;;;;;;5042451;28;20057;-43
2022/04/16 09:34:20;;;;;;;2.85;0.82;;;23.70;41.80;;;;;;5039643;28;20017;-43
2022/04/16 09:36:47;;;;;;;3.10;0.68;;;23.70;41.50;;;;;;5036836;28;20497;-42
2022/04/16 09:39:13;;;;;;;1.55;0.60;;;23.80;41.40;;;;;;5026253;28;20579;-42
2022/04/16 09:41:41;;;;;;;1.85;0.75;;;23.80;41.40;;;;;;5034622;28;20025;-42
2022/04/16 09:44:36;;;;;;;1.90;0.70;;;23.80;41.50;;;;;;5033760;28;20025;-42
2022/04/16 09:47:03;;;;;;;2.17;0.70;;;23.80;41.50;;;;;;5028939;28;20429;-42
2022/04/16 09:49:32;;;;;;;3.00;1.00;;;23.80;41.50;;;;;;5043214;28;20108;-42
2022/04/16 09:52:01;;;;;;;2.78;0.80;;;23.80;41.40;;;;;;5031931;28;20037;-42
2022/04/16 09:54:28;;;;;;;2.78;1.13;;;23.80;41.00;;;;;;5042830;28;20025;-42
2022/04/16 09:57:01;;;;;;;1.55;0.50;;;23.80;41.00;;;;;;5043104;28;20040;-42
2022/04/16 09:59:34;;;;;;;1.95;0.60;;;23.70;41.00;;;;;;5043739;28;20032;-42
2022/04/16 10:02:01;;;;;;;1.83;0.60;;;23.70;41.00;;;;;;5043746;28;20104;-42
2022/04/16 10:04:29;;;;;;;2.17;0.80;;;23.80;41.00;;;;;;5028068;28;20025;-43
2022/04/16 10:06:56;;;;;;;2.90;1.00;;;23.80;41.00;;;;;;5023478;28;20021;-42
2022/04/16 10:09:24;;;;;;;1.85;0.73;;;23.80;40.90;;;;;;5023308;28;20639;-42
2022/04/16 10:15:11;;;;;;;2.63;0.70;;;23.80;41.40;;;;;;5042943;28;20534;-42
2022/04/16 10:17:42;;;;;;;2.42;0.70;;;23.80;42.50;;;;;;5041650;28;20032;-42
2022/04/16 10:20:26;;;;;;;2.97;0.77;;;23.80;44.50;;;;;;5032043;28;20029;-44
2022/04/16 10:22:56;;;;;;;3.95;1.33;;;23.80;43.90;;;;;;5029402;28;20558;-43
2022/04/16 10:25:40;;;;;;;3.30;1.30;;;23.80;47.20;;;;;;5037279;28;20112;-43
2022/04/16 10:28:07;;;;;;;4.40;1.17;;;23.80;49.50;;;;;;5032989;28;20029;-43
2022/04/16 10:30:40;;;;;;;3.92;1.40;;;23.80;51.40;;;;;;5045526;28;20025;-43
2022/04/16 10:33:17;;;;;;;1.45;0.80;;;23.90;53.30;;;;;;5039241;28;20493;-43
2022/04/16 10:35:54;;;;;;;4.20;1.17;;;23.90;51.80;;;;;;5045708;28;20112;-43
2022/04/16 10:38:24;;;;;;;3.05;0.80;;;23.90;50.70;;;;;;5046804;28;20025;-43
2022/04/16 10:41:23;;;;;;;3.08;1.05;;;23.90;48.70;;;;;;5032504;28;20071;-43
2022/04/16 10:43:59;;;;;;;2.45;0.80;;;23.90;47.60;;;;;;5045329;28;20033;-43
2022/04/16 10:46:46;;;;;;;1.83;0.63;;;23.90;46.70;;;;;;5045898;28;20052;-43
2022/04/16 10:49:23;;;;;;;3.15;0.85;;;23.90;45.80;;;;;;5045996;28;20029;-43
2022/04/16 10:51:55;;;;;;;2.53;0.90;;;23.90;45.60;;;;;;5045956;28;20017;-43
2022/04/16 10:54:34;;;;;;;3.80;0.80;;;23.90;45.10;;;;;;5045652;28;20033;-43
2022/04/16 10:57:00;;;;;;;2.40;0.52;;;23.90;44.80;;;;;;5034649;28;20111;-43
2022/04/16 10:59:37;;;;;;;1.30;0.57;;;23.90;44.30;;;;;;5026927;28;20033;-43
2022/04/16 11:02:19;;;;;;;1.73;0.57;;;23.80;44.00;;;;;;5026840;28;20037;-43
2022/04/16 11:05:03;;;;;;;2.10;0.57;;;23.80;43.80;;;;;;5026554;28;20069;-43
2022/04/16 11:07:30;;;;;;;1.77;0.50;;;23.80;43.70;;;;;;5026115;28;20041;-43
2022/04/16 11:09:57;;;;;;;2.33;0.70;;;23.80;43.40;;;;;;5026259;28;20025;-43
2022/04/16 11:12:23;;;;;;;1.35;0.52;;;23.80;43.20;;;;;;5025983;28;20033;-43
2022/04/16 11:14:51;;;;;;;3.38;0.68;;;23.80;43.10;;;;;;5025872;28;20482;-43
2022/04/16 11:17:19;;;;;;;2.05;0.85;;;23.80;43.00;;;;;;5026275;28;20075;-44
2022/04/16 11:19:47;;;;;;;2.60;0.90;;;23.80;43.10;;;;;;5025674;28;20048;-43
2022/04/16 11:22:13;;;;;;;2.47;1.00;;;23.80;44.50;;;;;;5028164;28;20547;-43
2022/04/16 11:24:39;;;;;;;2.17;0.85;;;23.80;45.00;;;;;;5034525;28;20110;-43
2022/04/16 11:35:25;;;;;;;3.67;1.08;;;23.80;44.60;;;;;;5045227;28;20112;-43
2022/04/16 11:37:56;;;;;;;3.55;1.20;;;23.80;44.60;;;;;;5045220;28;20025;-43
2022/04/16 11:40:22;;;;;;;4.05;1.45;;;23.80;44.30;;;;;;5035837;28;20028;-43
2022/04/16 11:42:49;;;;;;;4.47;1.20;;;23.80;44.00;;;;;;5040206;28;20041;-43
2022/04/16 11:45:15;;;;;;;2.67;0.88;;;23.80;43.80;;;;;;5045634;28;20111;-43
2022/04/16 11:47:41;;;;;;;2.58;1.08;;;23.80;43.50;;;;;;5045762;28;20485;-43
2022/04/16 11:50:10;;;;;;;2.85;0.77;;;23.80;44.00;;;;;;5043020;28;20571;-42
2022/04/16 11:52:37;;;;;;;2.65;1.10;;;23.80;43.20;;;;;;5031365;28;20037;-43
2022/04/16 11:55:04;;;;;;;2.30;0.80;;;23.80;43.50;;;;;;5026454;28;20823;-41
2022/04/16 11:57:29;;;;;;;2.28;1.05;;;23.80;43.70;;;;;;5028790;28;20052;-41
2022/04/16 11:59:59;;;;;;;3.10;0.80;;;23.80;43.80;;;;;;5028219;28;20409;-43
2022/04/16 12:02:30;;;;;;;2.97;0.70;;;23.80;43.80;;;;;;5043834;28;20400;-42
2022/04/16 12:05:13;;;;;;;1.75;0.75;;;23.90;44.20;;;;;;5045127;28;20122;-42
2022/04/16 12:07:42;;;;;;;2.10;0.70;;;23.90;44.60;;;;;;5045220;28;20389;-43
2022/04/16 12:10:09;;;;;;;3.13;0.93;;;23.90;46.00;;;;;;5026270;28;20028;-41
2022/04/16 12:12:49;;;;;;;2.15;0.73;;;24.00;47.50;;;;;;5023358;28;20501;-42
2022/04/16 12:15:23;;;;;;;2.42;0.90;;;24.10;45.40;;;;;;5025070;28;20029;-42
2022/04/16 12:17:49;;;;;;;1.85;0.85;;;24.10;44.60;;;;;;5037503;28;20104;-43
2022/04/16 12:20:15;;;;;;;2.30;0.98;;;24.10;44.00;;;;;;5043618;28;20036;-42
2022/04/16 12:22:49;;;;;;;1.90;0.63;;;24.10;43.10;;;;;;5040469;28;20480;-43
2022/04/16 12:25:18;;;;;;;1.40;0.65;;;24.10;43.10;;;;;;5039501;28;20082;-43
2022/04/16 12:27:49;;;;;;;1.67;0.70;;;24.10;42.60;;;;;;5044365;28;20699;-43
2022/04/16 12:30:18;;;;;;;2.72;0.70;;;24.10;43.10;;;;;;5036985;28;20044;-42
2022/04/16 12:32:59;;;;;;;1.90;0.63;;;24.10;42.90;;;;;;5024978;28;20028;-43
2022/04/16 12:35:27;;;;;;;1.40;0.60;;;24.00;42.70;;;;;;5024870;28;20183;-43
2022/04/16 12:37:54;;;;;;;2.63;0.82;;;24.00;42.30;;;;;;5042977;28;20229;-42
2022/04/16 12:40:21;;;;;;;1.65;0.57;;;24.00;42.30;;;;;;5034290;28;20063;-44
2022/04/16 12:42:48;;;;;;;1.38;0.60;;;24.00;42.00;;;;;;5024206;28;20082;-43
2022/04/16 12:45:14;;;;;;;1.75;0.57;;;24.00;41.80;;;;;;5024022;28;20025;-44
2022/04/16 12:47:40;;;;;;;2.40;0.90;;;24.00;41.80;;;;;;5024310;28;20037;-43
2022/04/16 12:50:06;;;;;;;2.15;0.68;;;24.00;41.60;;;;;;5024681;28;20429;-43
2022/04/16 12:52:32;;;;;;;1.80;0.70;;;24.00;41.50;;;;;;5019045;28;20187;-43
2022/04/16 12:54:57;;;;;;;2.05;0.63;;;24.00;42.10;;;;;;5024312;28;20060;-44
2022/04/16 12:57:23;;;;;;;1.52;0.70;;;24.00;41.90;;;;;;5034439;28;20660;-43
2022/04/16 12:59:48;;;;;;;2.03;0.77;;;24.00;41.60;;;;;;5030819;28;20025;-43
2022/04/16 13:02:14;;;;;;;1.67;0.52;;;24.00;41.50;;;;;;5030568;28;20021;-44
2022/04/16 13:04:40;;;;;;;2.30;0.70;;;24.00;41.60;;;;;;5028363;28;20045;-43
2022/04/16 13:07:05;;;;;;;1.60;0.77;;;24.00;41.70;;;;;;5025062;28;20382;-44
2022/04/16 13:09:31;;;;;;;1.75;0.70;;;24.00;41.70;;;;;;5033668;28;20435;-44
2022/04/16 13:11:57;;;;;;;1.67;0.80;;;23.90;41.70;;;;;;5033947;28;20082;-43
2022/04/16 13:14:23;;;;;;;4.47;0.88;;;23.90;41.60;;;;;;5031396;28;20024;-44
2022/04/16 13:16:48;;;;;;;1.50;0.70;;;23.90;41.60;;;;;;5032393;28;20021;-43
2022/04/16 13:19:15;;;;;;;2.85;0.75;;;24.00;41.30;;;;;;5037276;28;20496;-43